Time;durP1;ratioP1;P1;durP2;ratioP2;P2;SDS_P1;SDS_P2;PMS_P1;PMS_P2;Temp;Humidity;BMP_temperature;BMP_pressure;BME280_temperature;BME280_humidity;BME280_pressure;Samples;Min_cycle;Max_cycle;Signal;HPM_P1;HPM_P2
2023/09/19 00:01:15;;;;;;;1.85;1.33;;;16.10;99.90;;;;;;5004435;28;20087;-84
2023/09/19 00:03:41;;;;;;;2.47;1.40;;;16.10;99.90;;;;;;5016524;28;20540;-83
2023/09/19 00:06:07;;;;;;;3.75;1.13;;;16.10;99.90;;;;;;5011685;28;20034;-82
2023/09/19 00:08:33;;;;;;;3.42;1.15;;;16.10;99.90;;;;;;5007058;28;20030;-82
2023/09/19 00:11:05;;;;;;;1.98;1.20;;;16.10;99.90;;;;;;5002227;28;20033;-82
2023/09/19 00:13:33;;;;;;;1.50;0.90;;;16.10;99.90;;;;;;5006624;28;20018;-82
2023/09/19 00:15:59;;;;;;;1.50;1.25;;;16.00;99.90;;;;;;5013645;28;20018;-84
2023/09/19 00:18:29;;;;;;;3.75;1.30;;;16.00;99.90;;;;;;5001517;28;20026;-83
2023/09/19 00:20:58;;;;;;;4.70;1.58;;;16.00;99.90;;;;;;5006366;28;20060;-82
2023/09/19 00:23:24;;;;;;;2.90;1.60;;;16.00;99.90;;;;;;5011387;28;20030;-85
2023/09/19 00:25:51;;;;;;;2.60;1.27;;;16.10;99.90;;;;;;5006581;28;20579;-81
2023/09/19 00:28:18;;;;;;;1.45;1.25;;;16.00;99.90;;;;;;5009669;28;20030;-83
2023/09/19 00:30:44;;;;;;;3.05;1.60;;;16.10;99.90;;;;;;5005987;28;20401;-84
2023/09/19 00:33:15;;;;;;;2.55;2.03;;;16.10;99.90;;;;;;5007424;28;20095;-81
2023/09/19 00:35:49;;;;;;;4.30;1.48;;;16.10;99.90;;;;;;5008787;28;20026;-81
2023/09/19 00:38:20;;;;;;;1.75;1.40;;;16.10;99.90;;;;;;4998771;28;20557;-84
2023/09/19 00:40:47;;;;;;;2.80;2.20;;;16.10;99.90;;;;;;4999451;28;20057;-82
2023/09/19 00:43:12;;;;;;;2.03;1.80;;;16.00;99.90;;;;;;5001384;28;20563;-83
2023/09/19 00:45:42;;;;;;;3.92;1.58;;;16.10;99.90;;;;;;5002835;28;20076;-84
2023/09/19 00:48:09;;;;;;;3.17;1.35;;;16.00;99.90;;;;;;5002404;28;20045;-83
2023/09/19 00:50:35;;;;;;;2.05;1.60;;;16.00;99.90;;;;;;5005025;28;20081;-82
2023/09/19 00:53:07;;;;;;;2.47;1.67;;;16.00;99.90;;;;;;5013918;28;20092;-83
2023/09/19 00:55:34;;;;;;;3.35;1.65;;;16.00;99.90;;;;;;5012544;28;20401;-81
2023/09/19 00:58:00;;;;;;;2.38;1.80;;;16.00;99.90;;;;;;5013608;28;20029;-81
2023/09/19 01:00:26;;;;;;;1.85;1.50;;;15.90;99.90;;;;;;5004721;28;20030;-81
2023/09/19 01:02:52;;;;;;;2.85;2.22;;;15.90;99.90;;;;;;5014851;28;20022;-82
2023/09/19 01:05:18;;;;;;;2.33;1.70;;;16.00;99.90;;;;;;5003410;28;20026;-81
2023/09/19 01:07:50;;;;;;;3.10;1.98;;;16.00;99.90;;;;;;5012473;28;20029;-80
2023/09/19 01:10:20;;;;;;;1.50;1.40;;;16.00;99.90;;;;;;5004916;28;20018;-80
2023/09/19 01:13:10;;;;;;;2.50;1.90;;;16.00;99.90;;;;;;5011031;28;20021;-81
2023/09/19 01:15:36;;;;;;;2.38;1.70;;;16.00;99.90;;;;;;5008675;28;20412;-80
2023/09/19 01:18:12;;;;;;;3.85;2.10;;;16.00;99.90;;;;;;5001359;28;20033;-82
2023/09/19 01:21:06;;;;;;;2.22;2.03;;;16.00;99.90;;;;;;5011370;28;20109;-80
2023/09/19 01:24:10;;;;;;;5.10;2.28;;;15.90;99.90;;;;;;5017179;28;20042;-81
2023/09/19 01:27:17;;;;;;;3.45;2.20;;;15.90;99.90;;;;;;5006759;28;20121;-83
2023/09/19 01:29:46;;;;;;;2.85;1.77;;;15.80;99.90;;;;;;5004633;28;20038;-81
2023/09/19 01:32:16;;;;;;;4.00;2.22;;;15.80;99.90;;;;;;5008091;28;20026;-82
2023/09/19 01:34:58;;;;;;;3.60;2.40;;;15.80;99.90;;;;;;5004188;28;20057;-82
2023/09/19 01:37:25;;;;;;;3.97;2.55;;;15.80;99.90;;;;;;5008176;28;20042;-82
2023/09/19 01:40:11;;;;;;;6.30;2.92;;;15.80;99.90;;;;;;5011793;28;20144;-81
2023/09/19 01:43:07;;;;;;;3.47;2.20;;;15.80;99.90;;;;;;5009437;28;20461;-81
2023/09/19 01:45:59;;;;;;;3.70;2.13;;;15.80;99.90;;;;;;4999442;28;20104;-81
2023/09/19 01:48:57;;;;;;;2.75;1.98;;;15.70;99.90;;;;;;4997497;28;20278;-80
2023/09/19 01:51:51;;;;;;;3.20;1.92;;;15.70;99.90;;;;;;4996941;28;20015;-80
2023/09/19 01:54:24;;;;;;;2.45;2.00;;;15.70;99.90;;;;;;5001363;28;20022;-83
2023/09/19 01:57:09;;;;;;;2.47;2.10;;;15.70;99.90;;;;;;5014707;28;20037;-81
2023/09/19 01:59:48;;;;;;;2.88;1.80;;;15.70;99.90;;;;;;5013229;28;20027;-81
2023/09/19 02:02:15;;;;;;;4.32;2.08;;;15.70;99.90;;;;;;5008809;28;20029;-81
2023/09/19 02:04:41;;;;;;;5.30;1.88;;;15.70;99.90;;;;;;5010335;28;20109;-81
2023/09/19 02:07:08;;;;;;;2.75;1.83;;;15.70;99.90;;;;;;5010505;28;20097;-81
2023/09/19 02:09:35;;;;;;;3.45;2.00;;;15.60;99.90;;;;;;4997021;28;20409;-82
2023/09/19 02:12:04;;;;;;;2.10;1.75;;;15.60;99.90;;;;;;5012169;28;20033;-83
2023/09/19 02:14:30;;;;;;;2.35;1.63;;;15.60;99.90;;;;;;5006925;28;20040;-81
2023/09/19 02:16:56;;;;;;;5.15;1.70;;;15.60;99.90;;;;;;5008038;28;20025;-82
2023/09/19 02:19:22;;;;;;;2.83;1.50;;;15.50;99.90;;;;;;5013643;28;20023;-83
2023/09/19 02:21:48;;;;;;;3.78;1.80;;;15.50;99.90;;;;;;5008301;28;20103;-82
2023/09/19 02:24:15;;;;;;;2.22;1.70;;;15.50;99.90;;;;;;5015107;28;20026;-81
2023/09/19 02:26:41;;;;;;;3.65;1.90;;;15.40;99.90;;;;;;5006910;28;20097;-82
2023/09/19 02:29:06;;;;;;;7.93;2.08;;;15.40;99.90;;;;;;5012358;28;20060;-82
2023/09/19 02:31:32;;;;;;;2.67;1.63;;;15.50;99.90;;;;;;5005501;28;20027;-83
2023/09/19 02:33:57;;;;;;;8.05;1.88;;;15.40;99.90;;;;;;5009663;28;20057;-83
2023/09/19 02:36:23;;;;;;;3.15;1.45;;;15.50;99.90;;;;;;5002491;28;20076;-80
2023/09/19 02:38:49;;;;;;;3.35;1.67;;;15.40;99.90;;;;;;5012109;28;20033;-84
2023/09/19 02:41:15;;;;;;;4.60;1.58;;;15.40;99.90;;;;;;5009230;28;20029;-82
2023/09/19 02:43:40;;;;;;;3.65;1.40;;;15.40;99.90;;;;;;5015654;28;20498;-84
2023/09/19 02:46:06;;;;;;;6.32;1.77;;;15.30;99.90;;;;;;5012236;28;20033;-81
2023/09/19 02:48:34;;;;;;;2.50;1.58;;;15.30;99.90;;;;;;5013549;28;20406;-81
2023/09/19 02:51:00;;;;;;;3.88;1.92;;;15.30;99.90;;;;;;5014443;28;20837;-80
2023/09/19 02:53:25;;;;;;;4.85;1.95;;;15.30;99.90;;;;;;4999689;28;20023;-81
2023/09/19 02:55:52;;;;;;;2.75;1.52;;;15.30;99.90;;;;;;5008918;28;20025;-83
2023/09/19 02:58:18;;;;;;;2.78;1.83;;;15.20;99.90;;;;;;5007668;28;20065;-82
2023/09/19 03:00:47;;;;;;;4.05;1.92;;;15.20;99.90;;;;;;5009250;28;20057;-80
2023/09/19 03:03:13;;;;;;;3.67;1.85;;;15.20;99.90;;;;;;5005320;28;20052;-83
2023/09/19 03:05:38;;;;;;;5.63;1.83;;;15.20;99.90;;;;;;5010963;28;20111;-81
2023/09/19 03:08:06;;;;;;;5.22;2.20;;;15.20;99.90;;;;;;5000299;28;20104;-82
2023/09/19 03:10:31;;;;;;;3.70;1.55;;;15.20;99.90;;;;;;5008646;28;20018;-82
2023/09/19 03:12:59;;;;;;;2.88;1.67;;;15.30;99.90;;;;;;5005389;28;20026;-80
2023/09/19 03:15:25;;;;;;;7.88;2.38;;;15.30;99.90;;;;;;4999586;28;20030;-81
2023/09/19 03:17:53;;;;;;;5.35;2.10;;;15.30;99.90;;;;;;5016038;28;20026;-80
2023/09/19 03:20:18;;;;;;;2.75;1.77;;;15.30;99.90;;;;;;5016218;28;20029;-81
2023/09/19 03:22:45;;;;;;;4.60;1.85;;;15.20;99.90;;;;;;5013947;28;20031;-81
2023/09/19 03:25:11;;;;;;;3.85;1.95;;;15.20;99.90;;;;;;5010751;28;20152;-81
2023/09/19 03:27:40;;;;;;;3.00;1.67;;;15.20;99.90;;;;;;5013533;28;20027;-81
2023/09/19 03:30:08;;;;;;;1.95;1.45;;;15.30;99.90;;;;;;5006007;28;20018;-80
2023/09/19 03:32:43;;;;;;;6.80;2.13;;;15.30;99.90;;;;;;5008273;28;20022;-80
2023/09/19 03:35:14;;;;;;;3.65;1.38;;;15.20;99.90;;;;;;5020975;28;20026;-80
2023/09/19 03:37:43;;;;;;;2.28;1.58;;;15.20;99.90;;;;;;5005609;28;20046;-82
2023/09/19 03:40:10;;;;;;;3.33;1.65;;;15.20;99.90;;;;;;4995215;28;20042;-81
2023/09/19 03:42:40;;;;;;;5.63;1.95;;;15.20;99.90;;;;;;5007275;28;20046;-81
2023/09/19 03:45:11;;;;;;;1.70;1.00;;;15.20;99.90;;;;;;5003307;28;20026;-82
2023/09/19 03:47:38;;;;;;;2.78;1.48;;;15.20;99.90;;;;;;5005774;28;20049;-80
2023/09/19 03:50:05;;;;;;;3.58;1.42;;;15.20;99.90;;;;;;5012073;28;20102;-81
2023/09/19 03:52:30;;;;;;;6.07;1.77;;;15.20;99.90;;;;;;5005453;28;20022;-82
2023/09/19 03:54:56;;;;;;;4.63;1.02;;;15.20;99.90;;;;;;5004046;28;20026;-80
2023/09/19 03:57:21;;;;;;;2.60;1.20;;;15.20;99.90;;;;;;5012367;28;20112;-82
2023/09/19 03:59:47;;;;;;;4.80;1.65;;;15.10;99.90;;;;;;5000492;28;20022;-81
2023/09/19 04:02:22;;;;;;;3.38;1.13;;;15.10;99.90;;;;;;5002686;28;20520;-84
2023/09/19 04:04:48;;;;;;;4.30;1.25;;;15.00;99.90;;;;;;5007029;28;20160;-82
2023/09/19 04:07:13;;;;;;;5.40;1.65;;;15.00;99.90;;;;;;5009395;28;20626;-80
2023/09/19 04:09:39;;;;;;;3.53;1.40;;;15.00;99.90;;;;;;5007261;28;20030;-80
2023/09/19 04:12:05;;;;;;;3.33;1.42;;;15.00;99.90;;;;;;5010586;28;20029;-80
2023/09/19 04:14:30;;;;;;;1.95;1.30;;;15.00;99.90;;;;;;5002844;28;20502;-83
2023/09/19 04:16:56;;;;;;;4.97;1.13;;;14.90;99.90;;;;;;5002801;28;20034;-83
2023/09/19 04:19:22;;;;;;;2.65;1.38;;;15.00;99.90;;;;;;5011131;28;20038;-81
2023/09/19 04:21:47;;;;;;;5.28;1.58;;;14.90;99.90;;;;;;5005572;28;20030;-81
2023/09/19 04:24:13;;;;;;;3.85;1.70;;;14.90;99.90;;;;;;5004116;28;20481;-81
2023/09/19 04:26:38;;;;;;;4.22;1.52;;;14.90;99.90;;;;;;5012452;28;20527;-82
2023/09/19 04:29:05;;;;;;;5.10;1.75;;;14.90;99.90;;;;;;5004733;28;20025;-83
2023/09/19 04:31:31;;;;;;;2.70;1.20;;;14.80;99.90;;;;;;5010313;28;20030;-80
2023/09/19 04:33:59;;;;;;;4.07;1.60;;;14.80;99.90;;;;;;5011823;28;20128;-81
2023/09/19 04:36:24;;;;;;;6.47;2.08;;;14.80;99.90;;;;;;5007819;28;20084;-81
2023/09/19 04:38:50;;;;;;;2.75;1.33;;;14.80;99.90;;;;;;5011709;28;20445;-81
2023/09/19 04:41:15;;;;;;;5.40;1.40;;;14.70;99.90;;;;;;5006149;28;20452;-82
2023/09/19 04:43:41;;;;;;;4.63;1.30;;;14.70;99.90;;;;;;5009752;28;20061;-83
2023/09/19 04:46:07;;;;;;;3.95;1.42;;;14.70;99.90;;;;;;5000885;28;20018;-81
2023/09/19 04:48:34;;;;;;;8.57;1.55;;;14.60;99.90;;;;;;5019687;28;20075;-80
2023/09/19 04:51:00;;;;;;;9.48;1.33;;;14.60;99.90;;;;;;5015296;28;20029;-80
2023/09/19 04:53:25;;;;;;;5.13;1.15;;;14.50;99.90;;;;;;5003976;28;20034;-80
2023/09/19 04:55:55;;;;;;;5.20;1.40;;;14.50;99.90;;;;;;5013524;28;20057;-81
2023/09/19 04:58:21;;;;;;;3.17;1.25;;;14.50;99.90;;;;;;5009050;28;20508;-79
2023/09/19 05:00:47;;;;;;;4.43;1.45;;;14.40;99.90;;;;;;5007070;28;20030;-81
2023/09/19 05:03:13;;;;;;;3.33;1.25;;;14.40;99.90;;;;;;5013406;28;20036;-81
2023/09/19 05:05:41;;;;;;;4.70;1.38;;;14.40;99.90;;;;;;5021115;28;20029;-84
2023/09/19 05:08:08;;;;;;;4.10;1.45;;;14.40;99.90;;;;;;5019046;28;20018;-81
2023/09/19 05:10:37;;;;;;;5.57;1.60;;;14.40;99.90;;;;;;5011893;28;20034;-81
2023/09/19 05:13:04;;;;;;;6.28;1.38;;;14.30;99.90;;;;;;5009503;28;20351;-82
2023/09/19 05:15:30;;;;;;;3.70;1.45;;;14.30;99.90;;;;;;5010473;28;20029;-82
2023/09/19 05:17:56;;;;;;;3.03;1.40;;;14.30;99.90;;;;;;5013827;28;20031;-82
2023/09/19 05:20:36;;;;;;;3.65;1.38;;;14.20;99.90;;;;;;5018195;28;20033;-84
2023/09/19 05:23:03;;;;;;;5.10;1.67;;;14.20;99.90;;;;;;5014588;28;20194;-82
2023/09/19 05:25:32;;;;;;;5.30;1.98;;;14.10;99.90;;;;;;5008547;28;20021;-82
2023/09/19 05:27:59;;;;;;;5.60;1.58;;;14.20;99.90;;;;;;5007024;28;20072;-82
2023/09/19 05:30:27;;;;;;;5.85;1.48;;;14.20;99.90;;;;;;5004917;28;20027;-81
2023/09/19 05:32:54;;;;;;;5.03;1.60;;;14.10;99.90;;;;;;5003191;28;20022;-81
2023/09/19 05:35:21;;;;;;;5.32;1.38;;;14.10;99.90;;;;;;5010652;28;20490;-84
2023/09/19 05:37:48;;;;;;;4.25;1.83;;;14.10;99.90;;;;;;5006934;28;20052;-80
2023/09/19 05:40:15;;;;;;;6.03;1.42;;;14.00;99.90;;;;;;5002849;28;20026;-81
2023/09/19 05:42:43;;;;;;;2.58;1.50;;;14.00;99.90;;;;;;5014612;28;20844;-81
2023/09/19 05:45:12;;;;;;;3.88;1.67;;;14.00;99.90;;;;;;5004894;28;20113;-80
2023/09/19 05:47:38;;;;;;;7.38;1.73;;;14.00;99.90;;;;;;5006859;28;20021;-80
2023/09/19 05:50:05;;;;;;;3.60;1.33;;;14.00;99.90;;;;;;5008669;28;20030;-80
2023/09/19 05:52:30;;;;;;;4.50;1.67;;;14.00;99.90;;;;;;5004972;28;20426;-80
2023/09/19 05:54:56;;;;;;;3.92;1.50;;;14.00;99.90;;;;;;5013730;28;20152;-80
2023/09/19 05:57:22;;;;;;;5.22;1.67;;;14.00;99.90;;;;;;5015867;28;20422;-80
2023/09/19 05:59:50;;;;;;;3.10;1.20;;;14.00;99.90;;;;;;5009278;28;20018;-80
2023/09/19 06:02:16;;;;;;;6.00;1.80;;;14.00;99.90;;;;;;5005130;28;20045;-80
2023/09/19 06:04:41;;;;;;;5.13;1.48;;;14.00;99.90;;;;;;5002312;28;20070;-81
2023/09/19 06:07:07;;;;;;;2.50;1.48;;;14.00;99.90;;;;;;5001115;28;20330;-80
2023/09/19 06:09:33;;;;;;;5.47;1.20;;;14.10;99.90;;;;;;5003156;28;20109;-84
2023/09/19 06:12:03;;;;;;;6.93;1.65;;;14.10;99.90;;;;;;5022139;28;20013;-81
2023/09/19 06:14:28;;;;;;;4.85;1.30;;;14.20;99.90;;;;;;5016808;28;20022;-80
2023/09/19 06:16:54;;;;;;;5.10;1.20;;;14.30;99.90;;;;;;5006758;28;20033;-81
2023/09/19 06:19:22;;;;;;;7.32;2.20;;;14.30;99.90;;;;;;5012111;28;20010;-82
2023/09/19 06:21:48;;;;;;;2.55;1.60;;;14.40;99.90;;;;;;5017419;28;20022;-81
2023/09/19 06:24:14;;;;;;;3.53;1.25;;;14.40;99.90;;;;;;5011993;28;20125;-81
2023/09/19 06:26:40;;;;;;;7.35;2.13;;;14.40;99.90;;;;;;5015858;28;20041;-84
2023/09/19 06:29:09;;;;;;;5.68;1.65;;;14.40;99.90;;;;;;5015005;28;20010;-81
2023/09/19 06:31:35;;;;;;;5.95;1.80;;;14.50;99.90;;;;;;5009113;28;20093;-81
2023/09/19 06:34:01;;;;;;;5.80;1.52;;;14.50;99.90;;;;;;5005542;28;20114;-81
2023/09/19 06:36:26;;;;;;;4.43;1.25;;;14.50;99.90;;;;;;5018711;28;20091;-82
2023/09/19 06:38:52;;;;;;;4.03;1.15;;;14.50;99.90;;;;;;5018988;28;20022;-82
2023/09/19 06:41:18;;;;;;;4.88;1.50;;;14.50;99.90;;;;;;5025398;28;20105;-82
2023/09/19 06:43:43;;;;;;;4.25;1.40;;;14.50;99.90;;;;;;5013595;28;20029;-82
2023/09/19 06:46:09;;;;;;;5.55;1.30;;;14.60;99.90;;;;;;5013092;28;20042;-81
2023/09/19 06:48:35;;;;;;;5.13;1.55;;;14.60;99.90;;;;;;5004026;28;20061;-84
2023/09/19 06:51:05;;;;;;;5.55;1.38;;;14.60;99.90;;;;;;5020918;28;20037;-82
2023/09/19 06:53:32;;;;;;;4.82;1.38;;;14.60;99.90;;;;;;5007605;28;20100;-82
2023/09/19 06:55:58;;;;;;;3.45;1.60;;;14.70;99.90;;;;;;5013821;28;20351;-83
2023/09/19 06:58:23;;;;;;;4.20;1.20;;;14.60;99.90;;;;;;5015711;28;20021;-82
2023/09/19 07:00:50;;;;;;;4.95;1.48;;;14.70;99.90;;;;;;5012632;28;20034;-81
2023/09/19 07:03:18;;;;;;;7.60;1.98;;;14.70;99.90;;;;;;5011409;28;20017;-82
2023/09/19 07:05:44;;;;;;;6.70;1.40;;;14.70;99.90;;;;;;5014151;28;20060;-81
2023/09/19 07:08:12;;;;;;;3.92;1.40;;;14.70;99.90;;;;;;5004844;28;20076;-80
2023/09/19 07:10:40;;;;;;;5.35;1.52;;;14.80;99.90;;;;;;4999352;28;20026;-83
2023/09/19 07:13:10;;;;;;;4.28;1.50;;;14.80;99.90;;;;;;5008524;28;20030;-84
2023/09/19 07:15:39;;;;;;;5.18;1.67;;;14.80;99.90;;;;;;5012595;28;20025;-82
2023/09/19 07:18:06;;;;;;;9.40;2.00;;;14.80;99.90;;;;;;5009735;28;20037;-83
2023/09/19 07:20:32;;;;;;;5.53;1.80;;;14.90;99.90;;;;;;4998597;28;20295;-81
2023/09/19 07:23:01;;;;;;;7.20;1.85;;;14.90;99.90;;;;;;5008296;28;20031;-81
2023/09/19 07:25:30;;;;;;;9.68;1.95;;;15.00;99.90;;;;;;5023030;28;20018;-86
2023/09/19 07:27:59;;;;;;;5.35;1.65;;;15.00;99.90;;;;;;5012370;28;20029;-82
2023/09/19 07:30:26;;;;;;;7.20;2.05;;;15.10;99.90;;;;;;5010587;28;20021;-82
2023/09/19 07:32:52;;;;;;;2.83;1.80;;;15.10;99.90;;;;;;5018026;28;20500;-82
2023/09/19 07:35:19;;;;;;;4.95;1.77;;;15.20;99.90;;;;;;5021557;28;20458;-83
2023/09/19 07:37:49;;;;;;;6.80;1.75;;;15.10;99.90;;;;;;5019245;28;20140;-83
2023/09/19 07:40:15;;;;;;;6.28;2.33;;;15.10;99.90;;;;;;5024419;28;20014;-81
2023/09/19 07:42:40;;;;;;;8.02;1.77;;;15.20;99.90;;;;;;5004284;28;20121;-83
2023/09/19 07:45:13;;;;;;;4.68;1.70;;;15.20;99.90;;;;;;5002266;28;20726;-82
2023/09/19 07:47:39;;;;;;;5.75;1.75;;;15.20;99.90;;;;;;5007259;28;20021;-82
2023/09/19 07:50:07;;;;;;;5.90;1.92;;;15.20;99.90;;;;;;5006604;28;20018;-81
2023/09/19 07:52:33;;;;;;;5.78;1.63;;;15.20;99.90;;;;;;5007850;28;20327;-85
2023/09/19 07:55:01;;;;;;;5.50;2.47;;;15.20;99.90;;;;;;5009901;28;20041;-82
2023/09/19 07:57:28;;;;;;;2.50;1.52;;;15.20;99.90;;;;;;5026191;28;20538;-84
2023/09/19 07:59:53;;;;;;;7.75;2.35;;;15.20;99.90;;;;;;5004974;28;20037;-81
2023/09/19 08:02:19;;;;;;;6.25;2.22;;;15.20;99.90;;;;;;5015227;28;20496;-82
2023/09/19 08:04:48;;;;;;;4.05;1.70;;;15.20;99.90;;;;;;5007429;28;20205;-83
2023/09/19 08:07:15;;;;;;;3.35;1.58;;;15.20;99.90;;;;;;5030697;28;20191;-84
2023/09/19 08:09:41;;;;;;;4.30;2.17;;;15.20;99.90;;;;;;5022542;28;20551;-85
2023/09/19 08:12:10;;;;;;;4.97;1.52;;;15.20;99.90;;;;;;5001885;28;20019;-82
2023/09/19 08:14:36;;;;;;;4.85;1.67;;;15.20;99.90;;;;;;5010468;28;20120;-82
2023/09/19 08:17:01;;;;;;;5.97;1.42;;;15.20;99.90;;;;;;5018242;28;20101;-80
2023/09/19 08:19:28;;;;;;;3.20;1.38;;;15.30;99.90;;;;;;5025859;28;20422;-83
2023/09/19 08:22:00;;;;;;;2.58;1.40;;;15.30;99.90;;;;;;5003483;28;20384;-80
2023/09/19 08:24:30;;;;;;;6.72;1.75;;;15.30;99.90;;;;;;5005661;28;20014;-81
2023/09/19 08:26:57;;;;;;;3.92;1.35;;;15.30;99.90;;;;;;5006690;28;20026;-82
2023/09/19 08:29:30;;;;;;;4.85;1.77;;;15.40;99.90;;;;;;5007279;28;20023;-82
2023/09/19 08:31:57;;;;;;;5.15;1.90;;;15.50;99.90;;;;;;5011349;28;20025;-82
2023/09/19 08:34:23;;;;;;;4.18;1.70;;;15.50;99.90;;;;;;5010323;28;20042;-82
2023/09/19 08:36:58;;;;;;;6.07;1.88;;;15.50;99.90;;;;;;5022982;28;20082;-83
2023/09/19 08:39:24;;;;;;;5.63;1.40;;;15.60;99.90;;;;;;5022597;28;20052;-82
2023/09/19 08:41:56;;;;;;;2.95;1.88;;;15.60;99.90;;;;;;5010121;28;20030;-81
2023/09/19 08:44:22;;;;;;;4.80;1.55;;;15.50;99.90;;;;;;4998213;28;20046;-82
2023/09/19 08:46:50;;;;;;;6.03;1.83;;;15.50;99.90;;;;;;5011431;28;20072;-81
2023/09/19 08:49:33;;;;;;;7.78;2.15;;;15.50;99.90;;;;;;5006265;28;20081;-83
2023/09/19 08:52:16;;;;;;;5.18;2.45;;;15.50;99.90;;;;;;5012605;28;20113;-80
2023/09/19 08:54:43;;;;;;;4.50;1.58;;;15.60;99.90;;;;;;5008353;28;20018;-84
2023/09/19 08:57:10;;;;;;;7.28;2.15;;;15.50;99.90;;;;;;5013956;28;20077;-80
2023/09/19 08:59:39;;;;;;;7.50;1.70;;;15.60;99.90;;;;;;5006109;28;20739;-81
2023/09/19 09:02:11;;;;;;;10.68;2.25;;;15.60;99.90;;;;;;5013461;28;20018;-80
2023/09/19 09:04:40;;;;;;;4.70;1.80;;;15.60;99.90;;;;;;5015196;28;20021;-80
2023/09/19 09:07:11;;;;;;;3.35;1.30;;;15.60;99.90;;;;;;5008787;28;20082;-81
2023/09/19 09:09:37;;;;;;;6.72;1.50;;;15.60;99.90;;;;;;5011099;28;20064;-81
2023/09/19 09:12:04;;;;;;;6.32;2.38;;;15.60;99.90;;;;;;5015705;28;20049;-80
2023/09/19 09:14:30;;;;;;;6.53;1.98;;;15.60;99.90;;;;;;5015050;28;20021;-80
2023/09/19 09:16:58;;;;;;;7.97;2.20;;;15.70;99.90;;;;;;5015350;28;20398;-82
2023/09/19 09:19:24;;;;;;;6.80;2.38;;;15.70;99.90;;;;;;5009358;28;20006;-80
2023/09/19 09:21:51;;;;;;;2.72;1.40;;;15.80;99.90;;;;;;4993606;28;20397;-80
2023/09/19 09:24:30;;;;;;;6.50;2.00;;;15.80;99.90;;;;;;4997379;28;20057;-80
2023/09/19 09:26:59;;;;;;;8.13;2.00;;;15.80;99.90;;;;;;5001903;28;20038;-82
2023/09/19 09:29:49;;;;;;;6.00;2.10;;;15.90;99.90;;;;;;5004809;28;20075;-81
2023/09/19 09:32:29;;;;;;;10.20;1.98;;;15.90;99.90;;;;;;5009016;28;20017;-83
2023/09/19 09:35:00;;;;;;;8.25;2.05;;;16.00;99.90;;;;;;5021994;28;20024;-82
2023/09/19 09:37:28;;;;;;;5.45;2.05;;;16.10;99.90;;;;;;5012451;28;20053;-81
2023/09/19 09:39:58;;;;;;;3.08;1.65;;;16.10;99.90;;;;;;5015604;28;20026;-80
2023/09/19 09:42:35;;;;;;;7.97;1.33;;;16.10;99.90;;;;;;5010092;28;20058;-81
2023/09/19 09:45:37;;;;;;;3.88;1.70;;;16.20;99.90;;;;;;5009475;28;20031;-82
2023/09/19 09:48:03;;;;;;;5.82;1.67;;;16.30;99.90;;;;;;5008155;28;20069;-81
2023/09/19 09:50:44;;;;;;;10.50;2.25;;;16.30;99.90;;;;;;5010555;28;20015;-81
2023/09/19 09:53:27;;;;;;;5.65;1.83;;;16.40;99.90;;;;;;4995327;28;20037;-82
2023/09/19 09:56:07;;;;;;;5.63;1.80;;;16.40;99.90;;;;;;5012863;28;20018;-81
2023/09/19 09:58:37;;;;;;;6.50;1.27;;;16.50;99.90;;;;;;5011504;28;20029;-82
2023/09/19 10:01:14;;;;;;;7.55;2.00;;;16.60;99.90;;;;;;5006268;28;20382;-81
2023/09/19 10:03:43;;;;;;;6.10;2.08;;;16.70;99.90;;;;;;5025616;28;20025;-82
2023/09/19 10:09:12;;;;;;;8.05;2.13;;;16.80;99.90;;;;;;4995740;28;20045;-80
2023/09/19 10:11:42;;;;;;;4.18;1.83;;;16.80;99.90;;;;;;5007999;28;20121;-81
2023/09/19 10:14:11;;;;;;;5.47;1.52;;;16.80;99.90;;;;;;4997928;28;20150;-82
2023/09/19 10:16:40;;;;;;;4.88;2.17;;;16.90;99.90;;;;;;4998964;28;20112;-80
2023/09/19 10:19:09;;;;;;;7.22;1.90;;;16.80;99.90;;;;;;4997879;28;20097;-80
2023/09/19 10:21:39;;;;;;;4.68;1.58;;;16.90;99.90;;;;;;5000531;28;20723;-80
2023/09/19 10:24:08;;;;;;;6.65;1.90;;;16.90;99.90;;;;;;4992656;28;20014;-81
2023/09/19 10:26:36;;;;;;;5.72;2.08;;;17.00;99.90;;;;;;5001891;28;20021;-80
2023/09/19 10:29:03;;;;;;;4.03;1.42;;;17.00;99.90;;;;;;4998389;28;20034;-80
2023/09/19 10:31:35;;;;;;;6.75;1.73;;;17.10;99.90;;;;;;4996833;28;20358;-82
2023/09/19 10:34:04;;;;;;;4.30;1.25;;;17.00;99.90;;;;;;5001625;28;20494;-81
2023/09/19 10:36:35;;;;;;;7.13;1.50;;;17.00;99.90;;;;;;5016226;28;20682;-83
2023/09/19 10:39:06;;;;;;;5.13;1.38;;;17.10;99.90;;;;;;5015338;28;20113;-84
2023/09/19 10:41:34;;;;;;;3.30;1.13;;;17.10;99.90;;;;;;5011244;28;20041;-81
2023/09/19 10:44:04;;;;;;;4.00;1.13;;;17.20;99.90;;;;;;5005316;28;20051;-82
2023/09/19 10:46:32;;;;;;;5.18;1.30;;;17.30;99.90;;;;;;5009645;28;20019;-83
2023/09/19 10:49:02;;;;;;;5.68;1.42;;;17.30;99.90;;;;;;5003200;28;20104;-83
2023/09/19 10:51:33;;;;;;;3.47;1.60;;;17.30;99.90;;;;;;5004999;28;20025;-83
2023/09/19 10:54:11;;;;;;;8.68;2.38;;;17.20;99.90;;;;;;4998141;28;20040;-81
2023/09/19 10:56:41;;;;;;;7.50;2.47;;;17.20;99.90;;;;;;5010848;28;20111;-82
2023/09/19 10:59:09;;;;;;;3.05;1.40;;;17.20;99.90;;;;;;5011428;28;20026;-81
2023/09/19 11:01:57;;;;;;;6.03;2.33;;;17.20;99.90;;;;;;5010909;28;20175;-80
2023/09/19 11:04:38;;;;;;;7.82;2.17;;;17.30;99.90;;;;;;5007956;28;20030;-80
2023/09/19 11:07:14;;;;;;;7.22;1.88;;;17.30;99.90;;;;;;5010095;28;20053;-82
2023/09/19 11:09:51;;;;;;;2.85;1.58;;;17.40;99.90;;;;;;5003904;28;20046;-83
2023/09/19 11:12:30;;;;;;;4.38;1.95;;;17.40;99.90;;;;;;5007026;28;20049;-83
2023/09/19 11:14:56;;;;;;;5.90;1.67;;;17.50;99.90;;;;;;5001346;28;20473;-81
2023/09/19 11:17:32;;;;;;;5.82;1.73;;;17.60;99.90;;;;;;5004342;28;20018;-81
2023/09/19 11:22:50;;;;;;;6.00;1.58;;;17.70;99.90;;;;;;5000182;28;20045;-81
2023/09/19 11:25:29;;;;;;;3.65;1.83;;;17.70;99.90;;;;;;5010682;28;20015;-83
2023/09/19 11:28:14;;;;;;;6.03;1.80;;;17.70;99.90;;;;;;4997932;28;20128;-82
2023/09/19 11:30:53;;;;;;;6.80;1.77;;;17.80;99.90;;;;;;5008884;28;20377;-80
2023/09/19 11:33:43;;;;;;;3.53;1.67;;;17.80;99.90;;;;;;5008940;28;20019;-82
2023/09/19 11:36:24;;;;;;;3.95;1.58;;;17.80;99.90;;;;;;5012387;28;20118;-81
2023/09/19 11:38:50;;;;;;;5.20;2.05;;;17.80;99.90;;;;;;5005404;28;20044;-81
2023/09/19 11:41:21;;;;;;;6.07;1.60;;;17.80;99.90;;;;;;4997008;28;20530;-80
2023/09/19 11:43:58;;;;;;;6.15;1.77;;;17.80;99.90;;;;;;5004298;28;20035;-82
2023/09/19 11:46:25;;;;;;;9.70;2.28;;;17.80;99.90;;;;;;5008131;28;20435;-81
2023/09/19 11:48:51;;;;;;;4.20;1.85;;;18.00;99.90;;;;;;4998670;28;20037;-82
2023/09/19 11:51:23;;;;;;;8.48;1.52;;;18.10;99.90;;;;;;5000975;28;20014;-79
2023/09/19 11:53:50;;;;;;;4.68;1.77;;;18.10;99.90;;;;;;5004489;28;20400;-83
2023/09/19 11:56:17;;;;;;;3.55;1.80;;;18.20;99.90;;;;;;5006324;28;20041;-80
2023/09/19 11:58:44;;;;;;;4.85;1.90;;;18.10;99.90;;;;;;5000814;28;20050;-81
2023/09/19 12:01:14;;;;;;;4.90;1.85;;;18.10;99.90;;;;;;5003673;28;20018;-82
2023/09/19 12:03:47;;;;;;;3.70;1.60;;;18.10;99.90;;;;;;5000861;28;20026;-81
2023/09/19 12:06:14;;;;;;;4.80;1.55;;;18.10;99.90;;;;;;4999218;28;20068;-80
2023/09/19 12:08:42;;;;;;;4.47;1.70;;;18.10;99.90;;;;;;5004065;28;20018;-81
2023/09/19 12:11:15;;;;;;;6.97;1.70;;;18.10;99.90;;;;;;4997912;28;20053;-80
2023/09/19 12:13:44;;;;;;;5.80;1.52;;;18.10;99.90;;;;;;5007831;28;20496;-83
2023/09/19 12:16:17;;;;;;;3.40;1.83;;;18.10;99.90;;;;;;5001060;28;20021;-80
2023/09/19 12:18:44;;;;;;;4.68;1.77;;;18.20;99.90;;;;;;5016602;28;20025;-84
2023/09/19 12:21:27;;;;;;;7.60;1.83;;;18.20;99.90;;;;;;5014563;28;20025;-82
2023/09/19 12:24:19;;;;;;;6.43;1.63;;;18.30;99.90;;;;;;5004128;28;20116;-81
2023/09/19 12:26:47;;;;;;;4.22;2.00;;;18.30;99.90;;;;;;5005442;28;20022;-80
2023/09/19 12:29:22;;;;;;;1.98;1.30;;;18.30;99.90;;;;;;5006964;28;20045;-82
2023/09/19 12:31:57;;;;;;;8.73;2.63;;;18.30;99.90;;;;;;5013805;28;20473;-80
2023/09/19 12:34:39;;;;;;;5.85;2.35;;;18.20;99.90;;;;;;5017888;28;20331;-81
2023/09/19 12:37:11;;;;;;;11.77;2.05;;;18.20;99.90;;;;;;5001885;28;20107;-80
2023/09/19 12:39:42;;;;;;;4.70;1.58;;;18.20;99.90;;;;;;5001962;28;20419;-82
2023/09/19 12:42:15;;;;;;;5.72;1.73;;;18.20;99.90;;;;;;4994403;28;20038;-80
2023/09/19 12:44:42;;;;;;;7.97;2.17;;;18.20;99.90;;;;;;5024003;28;20082;-82
2023/09/19 12:47:15;;;;;;;3.50;1.50;;;18.20;99.90;;;;;;4995366;28;20022;-80
2023/09/19 12:50:13;;;;;;;3.53;1.55;;;18.30;99.90;;;;;;5003587;28;20053;-83
2023/09/19 12:52:40;;;;;;;5.85;1.80;;;18.30;99.90;;;;;;5003278;28;20032;-81
2023/09/19 12:55:10;;;;;;;7.28;2.00;;;18.30;99.90;;;;;;5007048;28;20501;-80
2023/09/19 12:57:36;;;;;;;6.85;1.95;;;18.30;99.90;;;;;;4996956;28;20034;-81
2023/09/19 13:00:05;;;;;;;6.57;2.28;;;18.30;99.90;;;;;;5001100;28;21304;-80
2023/09/19 13:02:31;;;;;;;4.88;2.08;;;18.40;99.90;;;;;;5017882;28;20022;-84
2023/09/19 13:05:04;;;;;;;4.13;1.75;;;18.30;99.90;;;;;;5006826;28;20022;-84